Tri-Cities Airport Airport (TRI)

 

Airport Diagram
Current Weather/Forecast (MVFR Conditions)
METAR KTRI 260053Z 00000KT 10SM OVC016 18/17 A3004 RMK AO2 SLP154 T01780167
TAF KTRI 252320Z 2600/2624 00000KT P6SM BKN025 FM260400 00000KT 4SM BR BKN010 FM260700 00000KT 1SM BR BKN008 TEMPO 2609/2613 1/4SM FG OVC003 FM261500 10002KT P6SM BKN025 FM261800 00000KT P6SM SCT023

All Charts
General
Chart Name Download
AIRPORT DIAGRAM
TAKEOFF MINIMUMS
ALTERNATE MINIMUMS

Departures
Chart Name Download
KINGS TWO
KINGS TWO, CONT.1

Approaches
Chart Name Download
ILS OR LOC RWY 05
ILS OR LOC RWY 23
ILS RWY 23 (SA CAT I)
ILS RWY 23 (CAT II)
RNAV (GPS) RWY 05
RNAV (GPS) RWY 09
RNAV (GPS) RWY 23
RNAV (GPS) RWY 27


Inbound Traffic (Arrivals)

No inbound traffic.


Outbound Traffic (Departures)

No outbound traffic.